sensor_id;sensor_type;location;lat;lon;timestamp;P1;durP1;ratioP1;P2;durP2;ratioP2
64387;SDS011;50709;52.648;4.764;2023-09-08T00:00:18;14.02;;;8.60;;
64387;SDS011;50709;52.648;4.764;2023-09-08T00:02:45;11.18;;;8.45;;
64387;SDS011;50709;52.648;4.764;2023-09-08T00:05:10;11.73;;;8.50;;
64387;SDS011;50709;52.648;4.764;2023-09-08T00:07:57;11.93;;;8.27;;
64387;SDS011;50709;52.648;4.764;2023-09-08T00:10:23;12.43;;;8.98;;
64387;SDS011;50709;52.648;4.764;2023-09-08T00:12:48;11.82;;;8.48;;
64387;SDS011;50709;52.648;4.764;2023-09-08T00:15:15;11.52;;;8.43;;
64387;SDS011;50709;52.648;4.764;2023-09-08T00:17:40;12.40;;;8.88;;
64387;SDS011;50709;52.648;4.764;2023-09-08T00:20:06;10.57;;;7.95;;
64387;SDS011;50709;52.648;4.764;2023-09-08T00:22:40;12.20;;;8.20;;
64387;SDS011;50709;52.648;4.764;2023-09-08T00:25:05;11.68;;;8.75;;
64387;SDS011;50709;52.648;4.764;2023-09-08T00:27:31;10.05;;;8.18;;
64387;SDS011;50709;52.648;4.764;2023-09-08T00:30:20;12.88;;;8.25;;
64387;SDS011;50709;52.648;4.764;2023-09-08T00:32:47;11.45;;;8.43;;
64387;SDS011;50709;52.648;4.764;2023-09-08T00:35:16;13.32;;;8.32;;
64387;SDS011;50709;52.648;4.764;2023-09-08T00:37:42;10.25;;;7.90;;
64387;SDS011;50709;52.648;4.764;2023-09-08T00:40:28;10.93;;;8.63;;
64387;SDS011;50709;52.648;4.764;2023-09-08T00:42:53;11.57;;;8.55;;
64387;SDS011;50709;52.648;4.764;2023-09-08T00:45:41;13.13;;;8.63;;
64387;SDS011;50709;52.648;4.764;2023-09-08T00:48:07;12.98;;;9.20;;
64387;SDS011;50709;52.648;4.764;2023-09-08T00:50:54;12.77;;;8.55;;
64387;SDS011;50709;52.648;4.764;2023-09-08T00:53:20;12.65;;;8.73;;
64387;SDS011;50709;52.648;4.764;2023-09-08T00:56:06;12.43;;;9.02;;
64387;SDS011;50709;52.648;4.764;2023-09-08T00:58:39;14.30;;;9.10;;
64387;SDS011;50709;52.648;4.764;2023-09-08T01:01:05;13.60;;;9.20;;
64387;SDS011;50709;52.648;4.764;2023-09-08T01:03:31;13.82;;;9.63;;
64387;SDS011;50709;52.648;4.764;2023-09-08T01:05:57;14.38;;;9.40;;
64387;SDS011;50709;52.648;4.764;2023-09-08T01:08:23;12.05;;;9.10;;
64387;SDS011;50709;52.648;4.764;2023-09-08T01:10:48;15.07;;;9.57;;
64387;SDS011;50709;52.648;4.764;2023-09-08T01:13:14;13.70;;;9.80;;
64387;SDS011;50709;52.648;4.764;2023-09-08T01:15:39;17.08;;;9.75;;
64387;SDS011;50709;52.648;4.764;2023-09-08T01:18:05;12.05;;;8.88;;
64387;SDS011;50709;52.648;4.764;2023-09-08T01:20:50;13.18;;;9.32;;
64387;SDS011;50709;52.648;4.764;2023-09-08T01:23:56;13.45;;;9.18;;
64387;SDS011;50709;52.648;4.764;2023-09-08T01:26:43;11.88;;;8.65;;
64387;SDS011;50709;52.648;4.764;2023-09-08T01:29:09;14.50;;;8.77;;
64387;SDS011;50709;52.648;4.764;2023-09-08T01:31:36;14.95;;;9.57;;
64387;SDS011;50709;52.648;4.764;2023-09-08T01:34:22;11.55;;;8.48;;
64387;SDS011;50709;52.648;4.764;2023-09-08T01:37:28;12.98;;;9.35;;
64387;SDS011;50709;52.648;4.764;2023-09-08T01:39:53;13.13;;;9.43;;
64387;SDS011;50709;52.648;4.764;2023-09-08T01:42:40;12.35;;;9.30;;
64387;SDS011;50709;52.648;4.764;2023-09-08T01:45:09;13.95;;;8.50;;
64387;SDS011;50709;52.648;4.764;2023-09-08T01:47:37;12.40;;;8.73;;
64387;SDS011;50709;52.648;4.764;2023-09-08T01:50:23;12.57;;;9.48;;
64387;SDS011;50709;52.648;4.764;2023-09-08T01:53:11;12.82;;;8.50;;
64387;SDS011;50709;52.648;4.764;2023-09-08T01:55:36;14.65;;;8.80;;
64387;SDS011;50709;52.648;4.764;2023-09-08T01:58:03;11.85;;;8.85;;
64387;SDS011;50709;52.648;4.764;2023-09-08T02:00:50;13.02;;;9.00;;
64387;SDS011;50709;52.648;4.764;2023-09-08T02:03:16;11.85;;;8.90;;
64387;SDS011;50709;52.648;4.764;2023-09-08T02:05:42;12.75;;;8.75;;
64387;SDS011;50709;52.648;4.764;2023-09-08T02:08:07;14.40;;;9.48;;
64387;SDS011;50709;52.648;4.764;2023-09-08T02:10:33;11.90;;;8.73;;
64387;SDS011;50709;52.648;4.764;2023-09-08T02:12:59;13.80;;;9.73;;
64387;SDS011;50709;52.648;4.764;2023-09-08T02:15:27;12.23;;;8.73;;
64387;SDS011;50709;52.648;4.764;2023-09-08T02:18:13;11.45;;;8.73;;
64387;SDS011;50709;52.648;4.764;2023-09-08T02:20:39;12.73;;;9.20;;
64387;SDS011;50709;52.648;4.764;2023-09-08T02:23:06;13.68;;;9.77;;
64387;SDS011;50709;52.648;4.764;2023-09-08T02:25:32;13.05;;;8.95;;
64387;SDS011;50709;52.648;4.764;2023-09-08T02:27:57;14.10;;;9.38;;
64387;SDS011;50709;52.648;4.764;2023-09-08T02:30:43;14.65;;;9.15;;
64387;SDS011;50709;52.648;4.764;2023-09-08T02:33:09;12.85;;;9.30;;
64387;SDS011;50709;52.648;4.764;2023-09-08T02:36:01;12.30;;;9.15;;
64387;SDS011;50709;52.648;4.764;2023-09-08T02:38:52;12.80;;;9.38;;
64387;SDS011;50709;52.648;4.764;2023-09-08T02:41:20;13.48;;;9.75;;
64387;SDS011;50709;52.648;4.764;2023-09-08T02:43:46;13.15;;;8.45;;
64387;SDS011;50709;52.648;4.764;2023-09-08T02:46:16;13.65;;;9.55;;
64387;SDS011;50709;52.648;4.764;2023-09-08T02:49:04;12.50;;;8.80;;
64387;SDS011;50709;52.648;4.764;2023-09-08T02:51:53;13.25;;;8.38;;
64387;SDS011;50709;52.648;4.764;2023-09-08T02:54:20;14.27;;;9.88;;
64387;SDS011;50709;52.648;4.764;2023-09-08T02:56:45;13.38;;;8.98;;
64387;SDS011;50709;52.648;4.764;2023-09-08T02:59:16;12.80;;;9.43;;
64387;SDS011;50709;52.648;4.764;2023-09-08T03:01:42;12.93;;;8.88;;
64387;SDS011;50709;52.648;4.764;2023-09-08T03:04:07;13.45;;;9.13;;
64387;SDS011;50709;52.648;4.764;2023-09-08T03:06:34;12.88;;;9.05;;
64387;SDS011;50709;52.648;4.764;2023-09-08T03:09:19;13.30;;;8.98;;
64387;SDS011;50709;52.648;4.764;2023-09-08T03:11:55;13.57;;;9.07;;
64387;SDS011;50709;52.648;4.764;2023-09-08T03:14:40;14.65;;;8.70;;
64387;SDS011;50709;52.648;4.764;2023-09-08T03:17:06;12.18;;;8.98;;
64387;SDS011;50709;52.648;4.764;2023-09-08T03:19:34;12.27;;;8.73;;
64387;SDS011;50709;52.648;4.764;2023-09-08T03:22:20;14.18;;;9.30;;
64387;SDS011;50709;52.648;4.764;2023-09-08T03:24:45;13.25;;;9.23;;
64387;SDS011;50709;52.648;4.764;2023-09-08T03:27:10;12.32;;;8.82;;
64387;SDS011;50709;52.648;4.764;2023-09-08T03:29:37;12.43;;;9.10;;
64387;SDS011;50709;52.648;4.764;2023-09-08T03:32:02;15.48;;;9.60;;
64387;SDS011;50709;52.648;4.764;2023-09-08T03:34:28;15.00;;;9.82;;
64387;SDS011;50709;52.648;4.764;2023-09-08T03:36:54;14.48;;;9.30;;
64387;SDS011;50709;52.648;4.764;2023-09-08T03:40:00;12.77;;;9.05;;
64387;SDS011;50709;52.648;4.764;2023-09-08T03:42:26;14.25;;;9.27;;
64387;SDS011;50709;52.648;4.764;2023-09-08T03:44:53;12.27;;;8.57;;
64387;SDS011;50709;52.648;4.764;2023-09-08T03:47:18;16.42;;;9.43;;
64387;SDS011;50709;52.648;4.764;2023-09-08T03:49:45;13.00;;;9.57;;
64387;SDS011;50709;52.648;4.764;2023-09-08T03:52:10;13.10;;;9.30;;
64387;SDS011;50709;52.648;4.764;2023-09-08T03:54:56;15.20;;;9.80;;
64387;SDS011;50709;52.648;4.764;2023-09-08T03:57:24;14.65;;;9.63;;
64387;SDS011;50709;52.648;4.764;2023-09-08T04:00:09;14.05;;;9.80;;
64387;SDS011;50709;52.648;4.764;2023-09-08T04:02:36;16.83;;;9.90;;
64387;SDS011;50709;52.648;4.764;2023-09-08T04:05:03;14.52;;;9.70;;
64387;SDS011;50709;52.648;4.764;2023-09-08T04:07:50;16.00;;;10.05;;
64387;SDS011;50709;52.648;4.764;2023-09-08T04:10:55;14.77;;;9.73;;
64387;SDS011;50709;52.648;4.764;2023-09-08T04:13:20;15.00;;;10.57;;
64387;SDS011;50709;52.648;4.764;2023-09-08T04:16:06;13.93;;;9.90;;
64387;SDS011;50709;52.648;4.764;2023-09-08T04:18:31;15.18;;;10.73;;
64387;SDS011;50709;52.648;4.764;2023-09-08T04:20:58;15.38;;;10.57;;
64387;SDS011;50709;52.648;4.764;2023-09-08T04:23:43;15.00;;;10.52;;
64387;SDS011;50709;52.648;4.764;2023-09-08T04:26:10;14.60;;;10.43;;
64387;SDS011;50709;52.648;4.764;2023-09-08T04:28:35;14.80;;;10.75;;
64387;SDS011;50709;52.648;4.764;2023-09-08T04:31:05;16.30;;;10.77;;
64387;SDS011;50709;52.648;4.764;2023-09-08T04:33:54;17.20;;;10.52;;
64387;SDS011;50709;52.648;4.764;2023-09-08T04:36:39;17.67;;;11.27;;
64387;SDS011;50709;52.648;4.764;2023-09-08T04:39:05;14.93;;;10.45;;
64387;SDS011;50709;52.648;4.764;2023-09-08T04:41:33;18.90;;;10.88;;
64387;SDS011;50709;52.648;4.764;2023-09-08T04:43:59;17.90;;;10.70;;
64387;SDS011;50709;52.648;4.764;2023-09-08T04:46:48;16.80;;;10.20;;
64387;SDS011;50709;52.648;4.764;2023-09-08T04:49:14;18.00;;;10.32;;
64387;SDS011;50709;52.648;4.764;2023-09-08T04:51:39;17.58;;;10.68;;
64387;SDS011;50709;52.648;4.764;2023-09-08T04:54:05;17.90;;;11.35;;
64387;SDS011;50709;52.648;4.764;2023-09-08T04:56:30;18.00;;;11.13;;
64387;SDS011;50709;52.648;4.764;2023-09-08T04:58:57;16.02;;;10.63;;
64387;SDS011;50709;52.648;4.764;2023-09-08T05:01:25;17.15;;;10.63;;
64387;SDS011;50709;52.648;4.764;2023-09-08T05:03:54;19.13;;;11.63;;
64387;SDS011;50709;52.648;4.764;2023-09-08T05:06:20;15.43;;;10.60;;
64387;SDS011;50709;52.648;4.764;2023-09-08T05:08:48;17.55;;;10.70;;
64387;SDS011;50709;52.648;4.764;2023-09-08T05:11:15;16.98;;;11.30;;
64387;SDS011;50709;52.648;4.764;2023-09-08T05:14:03;14.55;;;9.80;;
64387;SDS011;50709;52.648;4.764;2023-09-08T05:16:30;17.85;;;10.57;;
64387;SDS011;50709;52.648;4.764;2023-09-08T05:19:38;17.70;;;11.43;;
64387;SDS011;50709;52.648;4.764;2023-09-08T05:22:24;17.45;;;11.20;;
64387;SDS011;50709;52.648;4.764;2023-09-08T05:24:50;18.02;;;10.95;;
64387;SDS011;50709;52.648;4.764;2023-09-08T05:27:15;19.73;;;12.00;;
64387;SDS011;50709;52.648;4.764;2023-09-08T05:29:41;20.25;;;11.57;;
64387;SDS011;50709;52.648;4.764;2023-09-08T05:32:10;17.88;;;11.48;;
64387;SDS011;50709;52.648;4.764;2023-09-08T05:34:37;15.80;;;11.32;;
64387;SDS011;50709;52.648;4.764;2023-09-08T05:37:05;17.52;;;11.57;;
64387;SDS011;50709;52.648;4.764;2023-09-08T05:39:31;19.00;;;11.50;;
64387;SDS011;50709;52.648;4.764;2023-09-08T05:42:02;15.98;;;10.70;;
64387;SDS011;50709;52.648;4.764;2023-09-08T05:44:29;18.92;;;11.68;;
64387;SDS011;50709;52.648;4.764;2023-09-08T05:46:55;16.95;;;11.25;;
64387;SDS011;50709;52.648;4.764;2023-09-08T05:49:21;15.75;;;10.73;;
64387;SDS011;50709;52.648;4.764;2023-09-08T05:51:48;17.33;;;11.15;;
64387;SDS011;50709;52.648;4.764;2023-09-08T05:54:14;19.13;;;11.70;;
64387;SDS011;50709;52.648;4.764;2023-09-08T05:56:40;20.20;;;11.30;;
64387;SDS011;50709;52.648;4.764;2023-09-08T05:59:08;18.17;;;11.85;;
64387;SDS011;50709;52.648;4.764;2023-09-08T06:01:38;17.88;;;12.45;;
64387;SDS011;50709;52.648;4.764;2023-09-08T06:04:23;16.38;;;11.48;;
64387;SDS011;50709;52.648;4.764;2023-09-08T06:06:50;20.48;;;11.75;;
64387;SDS011;50709;52.648;4.764;2023-09-08T06:09:17;21.05;;;12.02;;
64387;SDS011;50709;52.648;4.764;2023-09-08T06:11:45;18.50;;;12.40;;
64387;SDS011;50709;52.648;4.764;2023-09-08T06:14:11;20.75;;;12.40;;
64387;SDS011;50709;52.648;4.764;2023-09-08T06:16:36;15.88;;;11.02;;
64387;SDS011;50709;52.648;4.764;2023-09-08T06:19:02;17.75;;;11.35;;
64387;SDS011;50709;52.648;4.764;2023-09-08T06:21:28;18.95;;;11.52;;
64387;SDS011;50709;52.648;4.764;2023-09-08T06:23:53;19.55;;;13.45;;
64387;SDS011;50709;52.648;4.764;2023-09-08T06:26:19;18.73;;;11.77;;
64387;SDS011;50709;52.648;4.764;2023-09-08T06:28:44;19.45;;;12.93;;
64387;SDS011;50709;52.648;4.764;2023-09-08T06:31:10;20.88;;;12.05;;
64387;SDS011;50709;52.648;4.764;2023-09-08T06:33:35;17.45;;;11.77;;
64387;SDS011;50709;52.648;4.764;2023-09-08T06:36:01;18.88;;;12.27;;
64387;SDS011;50709;52.648;4.764;2023-09-08T06:38:26;18.90;;;11.98;;
64387;SDS011;50709;52.648;4.764;2023-09-08T06:40:52;22.15;;;12.63;;
64387;SDS011;50709;52.648;4.764;2023-09-08T06:43:19;17.73;;;10.80;;
64387;SDS011;50709;52.648;4.764;2023-09-08T06:45:47;16.85;;;12.05;;
64387;SDS011;50709;52.648;4.764;2023-09-08T06:48:14;21.85;;;13.52;;
64387;SDS011;50709;52.648;4.764;2023-09-08T06:50:39;19.52;;;12.15;;
64387;SDS011;50709;52.648;4.764;2023-09-08T06:53:05;20.83;;;12.82;;
64387;SDS011;50709;52.648;4.764;2023-09-08T06:55:30;21.25;;;13.90;;
64387;SDS011;50709;52.648;4.764;2023-09-08T06:57:56;20.95;;;12.32;;
64387;SDS011;50709;52.648;4.764;2023-09-08T07:00:22;20.50;;;13.05;;
64387;SDS011;50709;52.648;4.764;2023-09-08T07:02:47;22.02;;;13.05;;
64387;SDS011;50709;52.648;4.764;2023-09-08T07:05:14;23.70;;;14.65;;
64387;SDS011;50709;52.648;4.764;2023-09-08T07:07:40;21.98;;;12.38;;
64387;SDS011;50709;52.648;4.764;2023-09-08T07:10:07;21.33;;;12.55;;
64387;SDS011;50709;52.648;4.764;2023-09-08T07:12:33;20.95;;;13.88;;
64387;SDS011;50709;52.648;4.764;2023-09-08T07:14:59;20.67;;;12.65;;
64387;SDS011;50709;52.648;4.764;2023-09-08T07:17:27;19.77;;;12.65;;
64387;SDS011;50709;52.648;4.764;2023-09-08T07:19:53;19.80;;;13.45;;
64387;SDS011;50709;52.648;4.764;2023-09-08T07:22:18;24.20;;;13.40;;
64387;SDS011;50709;52.648;4.764;2023-09-08T07:24:44;24.35;;;12.93;;
64387;SDS011;50709;52.648;4.764;2023-09-08T07:27:10;22.77;;;13.80;;
64387;SDS011;50709;52.648;4.764;2023-09-08T07:29:37;23.75;;;13.98;;
64387;SDS011;50709;52.648;4.764;2023-09-08T07:32:03;27.10;;;15.02;;
64387;SDS011;50709;52.648;4.764;2023-09-08T07:34:28;23.00;;;14.70;;
64387;SDS011;50709;52.648;4.764;2023-09-08T07:36:54;18.65;;;12.55;;
64387;SDS011;50709;52.648;4.764;2023-09-08T07:39:19;21.13;;;14.30;;
64387;SDS011;50709;52.648;4.764;2023-09-08T07:41:44;24.70;;;14.70;;
64387;SDS011;50709;52.648;4.764;2023-09-08T07:44:12;22.90;;;13.88;;
64387;SDS011;50709;52.648;4.764;2023-09-08T07:46:38;24.98;;;13.82;;
64387;SDS011;50709;52.648;4.764;2023-09-08T07:49:03;24.48;;;15.05;;
64387;SDS011;50709;52.648;4.764;2023-09-08T07:51:29;23.88;;;15.10;;
64387;SDS011;50709;52.648;4.764;2023-09-08T07:53:54;23.65;;;15.25;;
64387;SDS011;50709;52.648;4.764;2023-09-08T07:56:21;24.42;;;15.15;;
64387;SDS011;50709;52.648;4.764;2023-09-08T07:58:46;27.25;;;16.65;;
64387;SDS011;50709;52.648;4.764;2023-09-08T08:01:12;27.27;;;16.05;;
64387;SDS011;50709;52.648;4.764;2023-09-08T08:03:38;24.45;;;13.80;;
64387;SDS011;50709;52.648;4.764;2023-09-08T08:06:03;21.00;;;14.25;;
64387;SDS011;50709;52.648;4.764;2023-09-08T08:08:30;28.23;;;15.90;;
64387;SDS011;50709;52.648;4.764;2023-09-08T08:10:55;25.85;;;14.57;;
64387;SDS011;50709;52.648;4.764;2023-09-08T08:13:21;26.48;;;17.13;;
64387;SDS011;50709;52.648;4.764;2023-09-08T08:15:46;24.80;;;15.65;;
64387;SDS011;50709;52.648;4.764;2023-09-08T08:18:12;26.08;;;15.45;;
64387;SDS011;50709;52.648;4.764;2023-09-08T08:20:38;30.88;;;17.33;;
64387;SDS011;50709;52.648;4.764;2023-09-08T08:23:05;28.85;;;16.25;;
64387;SDS011;50709;52.648;4.764;2023-09-08T08:25:31;26.45;;;15.63;;
64387;SDS011;50709;52.648;4.764;2023-09-08T08:27:57;26.45;;;15.10;;
64387;SDS011;50709;52.648;4.764;2023-09-08T08:30:24;30.10;;;18.45;;
64387;SDS011;50709;52.648;4.764;2023-09-08T08:32:50;25.02;;;15.55;;
64387;SDS011;50709;52.648;4.764;2023-09-08T08:35:16;27.92;;;15.95;;
64387;SDS011;50709;52.648;4.764;2023-09-08T08:37:42;28.88;;;15.90;;
64387;SDS011;50709;52.648;4.764;2023-09-08T08:40:09;23.58;;;13.52;;
64387;SDS011;50709;52.648;4.764;2023-09-08T08:42:38;26.58;;;15.48;;
64387;SDS011;50709;52.648;4.764;2023-09-08T08:45:04;28.23;;;17.08;;
64387;SDS011;50709;52.648;4.764;2023-09-08T08:47:30;31.63;;;18.60;;
64387;SDS011;50709;52.648;4.764;2023-09-08T08:49:56;29.15;;;17.42;;
64387;SDS011;50709;52.648;4.764;2023-09-08T08:52:26;30.98;;;18.83;;
64387;SDS011;50709;52.648;4.764;2023-09-08T08:54:52;30.98;;;17.88;;
64387;SDS011;50709;52.648;4.764;2023-09-08T08:57:18;26.70;;;16.05;;
64387;SDS011;50709;52.648;4.764;2023-09-08T08:59:45;28.98;;;16.27;;
64387;SDS011;50709;52.648;4.764;2023-09-08T09:02:11;32.00;;;19.65;;
64387;SDS011;50709;52.648;4.764;2023-09-08T09:04:39;33.88;;;19.90;;
64387;SDS011;50709;52.648;4.764;2023-09-08T09:07:05;26.48;;;16.05;;
64387;SDS011;50709;52.648;4.764;2023-09-08T09:09:31;28.35;;;17.02;;
64387;SDS011;50709;52.648;4.764;2023-09-08T09:11:57;34.92;;;19.40;;
64387;SDS011;50709;52.648;4.764;2023-09-08T09:14:22;31.85;;;18.70;;
64387;SDS011;50709;52.648;4.764;2023-09-08T09:16:48;32.88;;;20.27;;
64387;SDS011;50709;52.648;4.764;2023-09-08T09:19:17;35.38;;;20.55;;
64387;SDS011;50709;52.648;4.764;2023-09-08T09:21:52;33.60;;;18.55;;
64387;SDS011;50709;52.648;4.764;2023-09-08T09:26:53;29.10;;;17.70;;
64387;SDS011;50709;52.648;4.764;2023-09-08T09:29:20;33.72;;;21.23;;
64387;SDS011;50709;52.648;4.764;2023-09-08T09:31:56;33.72;;;20.08;;
64387;SDS011;50709;52.648;4.764;2023-09-08T09:34:22;36.72;;;22.02;;
64387;SDS011;50709;52.648;4.764;2023-09-08T09:36:48;37.33;;;22.65;;
64387;SDS011;50709;52.648;4.764;2023-09-08T09:39:18;30.30;;;17.35;;
64387;SDS011;50709;52.648;4.764;2023-09-08T09:41:48;30.95;;;18.38;;
64387;SDS011;50709;52.648;4.764;2023-09-08T09:44:17;32.38;;;20.30;;
64387;SDS011;50709;52.648;4.764;2023-09-08T09:46:43;35.30;;;21.45;;
64387;SDS011;50709;52.648;4.764;2023-09-08T09:49:11;35.70;;;21.50;;
64387;SDS011;50709;52.648;4.764;2023-09-08T09:51:44;33.08;;;20.85;;
64387;SDS011;50709;52.648;4.764;2023-09-08T09:54:12;35.53;;;21.48;;
64387;SDS011;50709;52.648;4.764;2023-09-08T09:56:38;33.60;;;19.77;;
64387;SDS011;50709;52.648;4.764;2023-09-08T09:59:07;27.75;;;17.80;;
64387;SDS011;50709;52.648;4.764;2023-09-08T10:01:34;33.22;;;19.40;;
64387;SDS011;50709;52.648;4.764;2023-09-08T10:04:01;33.03;;;19.83;;
64387;SDS011;50709;52.648;4.764;2023-09-08T10:06:29;38.97;;;21.88;;
64387;SDS011;50709;52.648;4.764;2023-09-08T10:08:57;30.77;;;17.33;;
64387;SDS011;50709;52.648;4.764;2023-09-08T10:11:25;37.50;;;20.08;;
64387;SDS011;50709;52.648;4.764;2023-09-08T10:13:53;32.63;;;18.52;;
64387;SDS011;50709;52.648;4.764;2023-09-08T10:16:23;31.67;;;18.20;;
64387;SDS011;50709;52.648;4.764;2023-09-08T10:18:53;29.52;;;18.20;;
64387;SDS011;50709;52.648;4.764;2023-09-08T10:21:22;31.48;;;20.75;;
64387;SDS011;50709;52.648;4.764;2023-09-08T10:23:53;32.50;;;18.38;;
64387;SDS011;50709;52.648;4.764;2023-09-08T10:26:23;30.55;;;18.83;;
64387;SDS011;50709;52.648;4.764;2023-09-08T10:28:53;30.85;;;19.15;;
64387;SDS011;50709;52.648;4.764;2023-09-08T10:31:21;36.33;;;20.40;;
64387;SDS011;50709;52.648;4.764;2023-09-08T10:33:51;29.98;;;17.95;;
64387;SDS011;50709;52.648;4.764;2023-09-08T10:36:20;36.17;;;21.63;;
64387;SDS011;50709;52.648;4.764;2023-09-08T10:38:46;37.97;;;20.83;;
64387;SDS011;50709;52.648;4.764;2023-09-08T10:44:03;33.58;;;19.70;;
64387;SDS011;50709;52.648;4.764;2023-09-08T10:46:32;27.80;;;17.13;;
64387;SDS011;50709;52.648;4.764;2023-09-08T10:49:03;30.05;;;19.90;;
64387;SDS011;50709;52.648;4.764;2023-09-08T10:51:31;33.67;;;19.88;;
64387;SDS011;50709;52.648;4.764;2023-09-08T10:53:58;30.05;;;20.25;;
64387;SDS011;50709;52.648;4.764;2023-09-08T10:56:27;22.83;;;14.43;;
64387;SDS011;50709;52.648;4.764;2023-09-08T10:59:11;26.23;;;16.83;;
64387;SDS011;50709;52.648;4.764;2023-09-08T11:01:37;24.63;;;15.25;;
64387;SDS011;50709;52.648;4.764;2023-09-08T11:04:03;25.90;;;15.27;;
64387;SDS011;50709;52.648;4.764;2023-09-08T11:06:33;22.33;;;14.02;;
64387;SDS011;50709;52.648;4.764;2023-09-08T11:09:05;20.98;;;13.07;;
64387;SDS011;50709;52.648;4.764;2023-09-08T11:11:31;19.25;;;12.77;;
64387;SDS011;50709;52.648;4.764;2023-09-08T11:13:58;23.20;;;14.52;;
64387;SDS011;50709;52.648;4.764;2023-09-08T11:16:24;22.75;;;13.27;;
64387;SDS011;50709;52.648;4.764;2023-09-08T11:18:54;19.95;;;12.93;;
64387;SDS011;50709;52.648;4.764;2023-09-08T11:21:19;21.08;;;11.75;;
64387;SDS011;50709;52.648;4.764;2023-09-08T11:23:45;28.55;;;17.63;;
64387;SDS011;50709;52.648;4.764;2023-09-08T11:26:11;36.22;;;21.67;;
64387;SDS011;50709;52.648;4.764;2023-09-08T11:28:37;30.30;;;17.77;;
64387;SDS011;50709;52.648;4.764;2023-09-08T11:31:02;34.75;;;20.38;;
64387;SDS011;50709;52.648;4.764;2023-09-08T11:33:32;28.55;;;18.10;;
64387;SDS011;50709;52.648;4.764;2023-09-08T11:35:59;28.67;;;17.75;;
64387;SDS011;50709;52.648;4.764;2023-09-08T11:38:27;33.88;;;19.63;;
64387;SDS011;50709;52.648;4.764;2023-09-08T11:40:55;31.17;;;20.27;;
64387;SDS011;50709;52.648;4.764;2023-09-08T11:43:22;28.88;;;18.52;;
64387;SDS011;50709;52.648;4.764;2023-09-08T11:45:48;36.08;;;21.90;;
64387;SDS011;50709;52.648;4.764;2023-09-08T11:48:14;32.72;;;18.95;;
64387;SDS011;50709;52.648;4.764;2023-09-08T11:50:43;32.28;;;20.13;;
64387;SDS011;50709;52.648;4.764;2023-09-08T11:53:09;28.38;;;18.15;;
64387;SDS011;50709;52.648;4.764;2023-09-08T11:55:35;32.30;;;19.13;;
64387;SDS011;50709;52.648;4.764;2023-09-08T11:58:01;30.38;;;19.15;;
64387;SDS011;50709;52.648;4.764;2023-09-08T12:00:27;33.92;;;20.35;;
64387;SDS011;50709;52.648;4.764;2023-09-08T12:02:54;26.25;;;17.23;;
64387;SDS011;50709;52.648;4.764;2023-09-08T12:05:23;35.85;;;22.63;;
64387;SDS011;50709;52.648;4.764;2023-09-08T12:07:50;27.60;;;17.52;;
64387;SDS011;50709;52.648;4.764;2023-09-08T12:10:16;33.00;;;21.35;;
64387;SDS011;50709;52.648;4.764;2023-09-08T12:12:46;30.58;;;19.02;;
64387;SDS011;50709;52.648;4.764;2023-09-08T12:15:35;34.63;;;21.10;;
64387;SDS011;50709;52.648;4.764;2023-09-08T12:18:04;32.55;;;19.70;;
64387;SDS011;50709;52.648;4.764;2023-09-08T12:20:32;29.95;;;19.77;;
64387;SDS011;50709;52.648;4.764;2023-09-08T12:23:19;33.97;;;20.83;;
64387;SDS011;50709;52.648;4.764;2023-09-08T12:26:06;29.65;;;19.25;;
64387;SDS011;50709;52.648;4.764;2023-09-08T12:28:32;30.30;;;17.73;;
64387;SDS011;50709;52.648;4.764;2023-09-08T12:30:58;30.95;;;20.52;;
64387;SDS011;50709;52.648;4.764;2023-09-08T12:33:25;28.45;;;17.67;;
64387;SDS011;50709;52.648;4.764;2023-09-08T12:35:51;33.25;;;19.77;;
64387;SDS011;50709;52.648;4.764;2023-09-08T12:38:18;29.63;;;17.33;;
64387;SDS011;50709;52.648;4.764;2023-09-08T12:40:44;26.50;;;18.20;;
64387;SDS011;50709;52.648;4.764;2023-09-08T12:43:09;28.13;;;18.70;;
64387;SDS011;50709;52.648;4.764;2023-09-08T12:45:35;30.58;;;17.38;;
64387;SDS011;50709;52.648;4.764;2023-09-08T12:48:01;32.47;;;20.05;;
64387;SDS011;50709;52.648;4.764;2023-09-08T12:50:28;29.23;;;18.83;;
64387;SDS011;50709;52.648;4.764;2023-09-08T12:52:56;31.05;;;19.73;;
64387;SDS011;50709;52.648;4.764;2023-09-08T12:55:22;26.85;;;17.67;;
64387;SDS011;50709;52.648;4.764;2023-09-08T12:57:48;29.77;;;19.60;;
64387;SDS011;50709;52.648;4.764;2023-09-08T13:00:15;29.65;;;18.45;;
64387;SDS011;50709;52.648;4.764;2023-09-08T13:02:40;26.45;;;18.02;;
64387;SDS011;50709;52.648;4.764;2023-09-08T13:05:06;27.15;;;17.60;;
64387;SDS011;50709;52.648;4.764;2023-09-08T13:07:33;28.10;;;18.77;;
64387;SDS011;50709;52.648;4.764;2023-09-08T13:09:58;25.10;;;16.75;;
64387;SDS011;50709;52.648;4.764;2023-09-08T13:12:24;24.50;;;16.65;;
64387;SDS011;50709;52.648;4.764;2023-09-08T13:14:49;24.25;;;15.75;;
64387;SDS011;50709;52.648;4.764;2023-09-08T13:17:15;18.63;;;13.07;;
64387;SDS011;50709;52.648;4.764;2023-09-08T13:19:41;16.75;;;12.40;;
64387;SDS011;50709;52.648;4.764;2023-09-08T13:22:07;18.58;;;12.90;;
64387;SDS011;50709;52.648;4.764;2023-09-08T13:24:32;18.27;;;12.70;;
64387;SDS011;50709;52.648;4.764;2023-09-08T13:27:01;17.05;;;12.13;;
64387;SDS011;50709;52.648;4.764;2023-09-08T13:29:26;18.80;;;12.02;;
64387;SDS011;50709;52.648;4.764;2023-09-08T13:31:55;15.88;;;11.93;;
64387;SDS011;50709;52.648;4.764;2023-09-08T13:34:21;15.68;;;11.65;;
64387;SDS011;50709;52.648;4.764;2023-09-08T13:36:46;14.18;;;11.05;;
64387;SDS011;50709;52.648;4.764;2023-09-08T13:39:12;17.77;;;12.65;;
64387;SDS011;50709;52.648;4.764;2023-09-08T13:41:50;16.90;;;11.65;;
64387;SDS011;50709;52.648;4.764;2023-09-08T13:44:17;18.75;;;12.02;;
64387;SDS011;50709;52.648;4.764;2023-09-08T13:46:47;17.55;;;11.50;;
64387;SDS011;50709;52.648;4.764;2023-09-08T13:49:13;13.88;;;9.70;;
64387;SDS011;50709;52.648;4.764;2023-09-08T13:51:39;15.23;;;9.98;;
64387;SDS011;50709;52.648;4.764;2023-09-08T13:54:04;12.15;;;9.63;;
64387;SDS011;50709;52.648;4.764;2023-09-08T13:56:30;14.23;;;10.52;;
64387;SDS011;50709;52.648;4.764;2023-09-08T13:58:56;12.55;;;9.20;;
64387;SDS011;50709;52.648;4.764;2023-09-08T14:01:21;12.77;;;9.45;;
64387;SDS011;50709;52.648;4.764;2023-09-08T14:03:46;14.40;;;9.32;;
64387;SDS011;50709;52.648;4.764;2023-09-08T14:06:16;11.85;;;8.68;;
64387;SDS011;50709;52.648;4.764;2023-09-08T14:08:42;11.55;;;9.35;;
64387;SDS011;50709;52.648;4.764;2023-09-08T14:11:07;16.23;;;9.27;;
64387;SDS011;50709;52.648;4.764;2023-09-08T14:13:34;9.88;;;8.25;;
64387;SDS011;50709;52.648;4.764;2023-09-08T14:16:00;10.90;;;8.13;;
64387;SDS011;50709;52.648;4.764;2023-09-08T14:18:25;11.13;;;8.20;;
64387;SDS011;50709;52.648;4.764;2023-09-08T14:20:51;9.82;;;7.32;;
64387;SDS011;50709;52.648;4.764;2023-09-08T14:23:16;10.90;;;7.38;;
64387;SDS011;50709;52.648;4.764;2023-09-08T14:25:41;12.98;;;7.65;;
64387;SDS011;50709;52.648;4.764;2023-09-08T14:28:07;10.48;;;7.80;;
64387;SDS011;50709;52.648;4.764;2023-09-08T14:30:33;10.35;;;7.30;;
64387;SDS011;50709;52.648;4.764;2023-09-08T14:32:59;11.38;;;7.60;;
64387;SDS011;50709;52.648;4.764;2023-09-08T14:35:25;11.18;;;8.15;;
64387;SDS011;50709;52.648;4.764;2023-09-08T14:37:50;10.88;;;7.68;;
64387;SDS011;50709;52.648;4.764;2023-09-08T14:40:16;10.70;;;7.30;;
64387;SDS011;50709;52.648;4.764;2023-09-08T14:42:41;10.32;;;7.18;;